sensor_id;sensor_type;location;lat;lon;timestamp;pressure;altitude;pressure_sealevel;temperature;humidity
60832;BME280;46665;51.558;-0.448;2022-08-19T00:00:41;100802.00;;;18.87;100.00
60832;BME280;46665;51.558;-0.448;2022-08-19T00:03:07;100800.38;;;18.86;100.00
60832;BME280;46665;51.558;-0.448;2022-08-19T00:05:33;100802.81;;;18.88;100.00
60832;BME280;46665;51.558;-0.448;2022-08-19T00:07:59;100804.41;;;18.89;100.00
60832;BME280;46665;51.558;-0.448;2022-08-19T00:10:25;100807.19;;;18.89;100.00
60832;BME280;46665;51.558;-0.448;2022-08-19T00:12:50;100806.38;;;18.88;100.00
60832;BME280;46665;51.558;-0.448;2022-08-19T00:15:18;100803.50;;;18.84;100.00
60832;BME280;46665;51.558;-0.448;2022-08-19T00:17:45;100803.97;;;18.87;100.00
60832;BME280;46665;51.558;-0.448;2022-08-19T00:20:15;100809.47;;;18.87;100.00
60832;BME280;46665;51.558;-0.448;2022-08-19T00:22:43;100808.34;;;18.88;100.00
60832;BME280;46665;51.558;-0.448;2022-08-19T00:25:09;100807.03;;;18.85;100.00
60832;BME280;46665;51.558;-0.448;2022-08-19T00:27:35;100801.66;;;18.89;100.00
60832;BME280;46665;51.558;-0.448;2022-08-19T00:30:01;100794.75;;;18.82;100.00
60832;BME280;46665;51.558;-0.448;2022-08-19T00:32:28;100805.75;;;18.82;100.00
60832;BME280;46665;51.558;-0.448;2022-08-19T00:34:54;100795.53;;;18.83;100.00
60832;BME280;46665;51.558;-0.448;2022-08-19T00:37:21;100796.34;;;18.83;100.00
60832;BME280;46665;51.558;-0.448;2022-08-19T00:39:48;100801.84;;;18.83;100.00
60832;BME280;46665;51.558;-0.448;2022-08-19T00:42:14;100796.03;;;18.85;100.00
60832;BME280;46665;51.558;-0.448;2022-08-19T00:44:41;100792.78;;;18.83;100.00
60832;BME280;46665;51.558;-0.448;2022-08-19T00:47:06;100782.91;;;18.82;100.00
60832;BME280;46665;51.558;-0.448;2022-08-19T00:49:36;100792.78;;;18.83;100.00
60832;BME280;46665;51.558;-0.448;2022-08-19T00:52:26;100789.72;;;18.84;100.00
60832;BME280;46665;51.558;-0.448;2022-08-19T00:54:55;100787.25;;;18.83;100.00
60832;BME280;46665;51.558;-0.448;2022-08-19T00:57:27;100784.03;;;18.81;100.00
60832;BME280;46665;51.558;-0.448;2022-08-19T00:59:56;100780.28;;;18.86;100.00
60832;BME280;46665;51.558;-0.448;2022-08-19T01:02:22;100784.66;;;18.87;100.00
60832;BME280;46665;51.558;-0.448;2022-08-19T01:04:48;100773.97;;;18.85;100.00
60832;BME280;46665;51.558;-0.448;2022-08-19T01:07:13;100784.31;;;18.88;100.00
60832;BME280;46665;51.558;-0.448;2022-08-19T01:09:39;100776.72;;;18.85;100.00
60832;BME280;46665;51.558;-0.448;2022-08-19T01:12:04;100779.47;;;18.85;100.00
60832;BME280;46665;51.558;-0.448;2022-08-19T01:14:30;100778.69;;;18.84;100.00
60832;BME280;46665;51.558;-0.448;2022-08-19T01:16:56;100787.44;;;18.87;100.00
60832;BME280;46665;51.558;-0.448;2022-08-19T01:19:29;100779.97;;;18.87;100.00
60832;BME280;46665;51.558;-0.448;2022-08-19T01:22:10;100769.59;;;18.84;100.00
60832;BME280;46665;51.558;-0.448;2022-08-19T01:24:37;100771.53;;;18.83;100.00
60832;BME280;46665;51.558;-0.448;2022-08-19T01:27:05;100774.63;;;18.82;100.00
60832;BME280;46665;51.558;-0.448;2022-08-19T01:29:30;100777.03;;;18.83;100.00
60832;BME280;46665;51.558;-0.448;2022-08-19T01:31:57;100781.63;;;18.79;100.00
60832;BME280;46665;51.558;-0.448;2022-08-19T01:34:22;100784.69;;;18.78;100.00
60832;BME280;46665;51.558;-0.448;2022-08-19T01:36:48;100786.34;;;18.79;100.00
60832;BME280;46665;51.558;-0.448;2022-08-19T01:39:21;100783.09;;;18.77;100.00
60832;BME280;46665;51.558;-0.448;2022-08-19T01:41:47;100787.81;;;18.76;100.00
60832;BME280;46665;51.558;-0.448;2022-08-19T01:44:13;100781.47;;;18.76;100.00
60832;BME280;46665;51.558;-0.448;2022-08-19T01:46:39;100778.56;;;18.72;100.00
60832;BME280;46665;51.558;-0.448;2022-08-19T01:49:05;100779.84;;;18.75;100.00
60832;BME280;46665;51.558;-0.448;2022-08-19T01:51:31;100773.84;;;18.73;100.00
60832;BME280;46665;51.558;-0.448;2022-08-19T01:53:57;100779.69;;;18.71;100.00
60832;BME280;46665;51.558;-0.448;2022-08-19T01:56:24;100784.38;;;18.71;100.00
60832;BME280;46665;51.558;-0.448;2022-08-19T01:58:56;100776.78;;;18.68;100.00
60832;BME280;46665;51.558;-0.448;2022-08-19T02:01:24;100776.31;;;18.66;100.00
60832;BME280;46665;51.558;-0.448;2022-08-19T02:03:49;100774.03;;;18.68;100.00
60832;BME280;46665;51.558;-0.448;2022-08-19T02:06:17;100775.19;;;18.67;100.00
60832;BME280;46665;51.558;-0.448;2022-08-19T02:08:43;100778.75;;;18.67;100.00
60832;BME280;46665;51.558;-0.448;2022-08-19T02:11:19;100780.81;;;18.70;100.00
60832;BME280;46665;51.558;-0.448;2022-08-19T02:13:44;100775.78;;;18.72;100.00
60832;BME280;46665;51.558;-0.448;2022-08-19T02:16:10;100773.34;;;18.71;100.00
60832;BME280;46665;51.558;-0.448;2022-08-19T02:18:35;100781.78;;;18.74;100.00
60832;BME280;46665;51.558;-0.448;2022-08-19T02:21:01;100782.91;;;18.73;100.00
60832;BME280;46665;51.558;-0.448;2022-08-19T02:23:26;100789.91;;;18.71;100.00
60832;BME280;46665;51.558;-0.448;2022-08-19T02:25:52;100783.25;;;18.72;100.00
60832;BME280;46665;51.558;-0.448;2022-08-19T02:28:17;100779.69;;;18.71;100.00
60832;BME280;46665;51.558;-0.448;2022-08-19T02:30:43;100780.50;;;18.72;100.00
60832;BME280;46665;51.558;-0.448;2022-08-19T02:33:08;100781.97;;;18.69;100.00
60832;BME280;46665;51.558;-0.448;2022-08-19T02:35:34;100783.59;;;18.70;100.00
60832;BME280;46665;51.558;-0.448;2022-08-19T02:37:59;100782.47;;;18.71;100.00
60832;BME280;46665;51.558;-0.448;2022-08-19T02:40:51;100780.34;;;18.68;100.00
60832;BME280;46665;51.558;-0.448;2022-08-19T02:43:18;100781.00;;;18.65;100.00
60832;BME280;46665;51.558;-0.448;2022-08-19T02:45:45;100790.75;;;18.62;100.00
60832;BME280;46665;51.558;-0.448;2022-08-19T02:48:10;100788.50;;;18.56;100.00
60832;BME280;46665;51.558;-0.448;2022-08-19T02:50:39;100785.63;;;18.52;100.00
60832;BME280;46665;51.558;-0.448;2022-08-19T02:53:05;100783.66;;;18.53;100.00
60832;BME280;46665;51.558;-0.448;2022-08-19T02:55:32;100782.88;;;18.52;100.00
60832;BME280;46665;51.558;-0.448;2022-08-19T02:57:57;100776.88;;;18.50;100.00
60832;BME280;46665;51.558;-0.448;2022-08-19T03:00:25;100781.91;;;18.48;100.00
60832;BME280;46665;51.558;-0.448;2022-08-19T03:02:51;100782.38;;;18.50;100.00
60832;BME280;46665;51.558;-0.448;2022-08-19T03:05:17;100788.25;;;18.49;100.00
60832;BME280;46665;51.558;-0.448;2022-08-19T03:07:43;100790.66;;;18.50;100.00
60832;BME280;46665;51.558;-0.448;2022-08-19T03:10:08;100792.72;;;18.53;100.00
60832;BME280;46665;51.558;-0.448;2022-08-19T03:12:38;100799.88;;;18.54;100.00
60832;BME280;46665;51.558;-0.448;2022-08-19T03:15:05;100787.38;;;18.57;100.00
60832;BME280;46665;51.558;-0.448;2022-08-19T03:17:33;100787.50;;;18.60;100.00
60832;BME280;46665;51.558;-0.448;2022-08-19T03:19:58;100783.16;;;18.59;100.00
60832;BME280;46665;51.558;-0.448;2022-08-19T03:22:24;100789.47;;;18.60;100.00
60832;BME280;46665;51.558;-0.448;2022-08-19T03:24:50;100787.06;;;18.58;100.00
60832;BME280;46665;51.558;-0.448;2022-08-19T03:27:16;100787.88;;;18.59;100.00
60832;BME280;46665;51.558;-0.448;2022-08-19T03:29:43;100787.88;;;18.59;100.00
60832;BME280;46665;51.558;-0.448;2022-08-19T03:32:09;100790.94;;;18.57;100.00
60832;BME280;46665;51.558;-0.448;2022-08-19T03:34:37;100784.47;;;18.53;100.00
60832;BME280;46665;51.558;-0.448;2022-08-19T03:37:09;100785.63;;;18.52;100.00
60832;BME280;46665;51.558;-0.448;2022-08-19T03:39:38;100785.63;;;18.52;100.00
60832;BME280;46665;51.558;-0.448;2022-08-19T03:42:04;100794.56;;;18.49;100.00
60832;BME280;46665;51.558;-0.448;2022-08-19T03:44:30;100789.72;;;18.46;100.00
60832;BME280;46665;51.558;-0.448;2022-08-19T03:46:59;100793.94;;;18.44;100.00
60832;BME280;46665;51.558;-0.448;2022-08-19T03:49:27;100793.94;;;18.44;100.00
60832;BME280;46665;51.558;-0.448;2022-08-19T03:51:54;100799.09;;;18.45;100.00
60832;BME280;46665;51.558;-0.448;2022-08-19T03:54:21;100802.19;;;18.44;100.00
60832;BME280;46665;51.558;-0.448;2022-08-19T03:56:49;100796.34;;;18.45;100.00
60832;BME280;46665;51.558;-0.448;2022-08-19T03:59:29;100794.38;;;18.46;100.00
60832;BME280;46665;51.558;-0.448;2022-08-19T04:01:57;100800.25;;;18.44;100.00
60832;BME280;46665;51.558;-0.448;2022-08-19T04:04:24;100802.66;;;18.46;100.00
60832;BME280;46665;51.558;-0.448;2022-08-19T04:06:50;100797.50;;;18.44;100.00
60832;BME280;46665;51.558;-0.448;2022-08-19T04:09:16;100799.56;;;18.47;100.00
60832;BME280;46665;51.558;-0.448;2022-08-19T04:11:48;100794.56;;;18.49;100.00
60832;BME280;46665;51.558;-0.448;2022-08-19T04:14:18;100806.84;;;18.52;100.00
60832;BME280;46665;51.558;-0.448;2022-08-19T04:16:45;100809.25;;;18.53;100.00
60832;BME280;46665;51.558;-0.448;2022-08-19T04:19:12;100807.34;;;18.54;100.00
60832;BME280;46665;51.558;-0.448;2022-08-19T04:21:38;100806.84;;;18.52;100.00
60832;BME280;46665;51.558;-0.448;2022-08-19T04:24:05;100802.03;;;18.49;100.00
60832;BME280;46665;51.558;-0.448;2022-08-19T04:26:33;100795.66;;;18.48;100.00
60832;BME280;46665;51.558;-0.448;2022-08-19T04:29:09;100792.13;;;18.48;100.00
60832;BME280;46665;51.558;-0.448;2022-08-19T04:31:35;100804.78;;;18.49;100.00
60832;BME280;46665;51.558;-0.448;2022-08-19T04:34:03;100801.84;;;18.45;100.00
60832;BME280;46665;51.558;-0.448;2022-08-19T04:36:32;100802.19;;;18.44;100.00
60832;BME280;46665;51.558;-0.448;2022-08-19T04:39:05;100801.22;;;18.39;100.00
60832;BME280;46665;51.558;-0.448;2022-08-19T04:41:31;100801.91;;;18.36;100.00
60832;BME280;46665;51.558;-0.448;2022-08-19T04:44:16;100809.69;;;18.34;100.00
60832;BME280;46665;51.558;-0.448;2022-08-19T04:46:44;100821.69;;;18.30;100.00
60832;BME280;46665;51.558;-0.448;2022-08-19T04:49:10;100818.44;;;18.28;100.00
60832;BME280;46665;51.558;-0.448;2022-08-19T04:51:39;100825.09;;;18.27;100.00
60832;BME280;46665;51.558;-0.448;2022-08-19T04:54:05;100821.53;;;18.26;100.00
60832;BME280;46665;51.558;-0.448;2022-08-19T04:56:30;100829.00;;;18.26;100.00
60832;BME280;46665;51.558;-0.448;2022-08-19T04:58:57;100835.63;;;18.25;100.00
60832;BME280;46665;51.558;-0.448;2022-08-19T05:01:25;100838.38;;;18.25;100.00
60832;BME280;46665;51.558;-0.448;2022-08-19T05:03:51;100824.97;;;18.23;100.00
60832;BME280;46665;51.558;-0.448;2022-08-19T05:06:19;100831.94;;;18.21;100.00
60832;BME280;46665;51.558;-0.448;2022-08-19T05:08:45;100831.59;;;18.22;100.00
60832;BME280;46665;51.558;-0.448;2022-08-19T05:11:23;100844.88;;;18.20;100.00
60832;BME280;46665;51.558;-0.448;2022-08-19T05:13:50;100847.63;;;18.20;100.00
60832;BME280;46665;51.558;-0.448;2022-08-19T05:16:18;100847.00;;;18.14;100.00
60832;BME280;46665;51.558;-0.448;2022-08-19T05:18:45;100858.81;;;18.15;100.00
60832;BME280;46665;51.558;-0.448;2022-08-19T05:21:30;100857.69;;;18.16;100.00
60832;BME280;46665;51.558;-0.448;2022-08-19T05:24:16;100863.19;;;18.16;100.00
60832;BME280;46665;51.558;-0.448;2022-08-19T05:26:44;100865.97;;;18.16;100.00
60832;BME280;46665;51.558;-0.448;2022-08-19T05:29:17;100857.34;;;18.17;100.00
60832;BME280;46665;51.558;-0.448;2022-08-19T05:31:44;100861.41;;;18.20;100.00
60832;BME280;46665;51.558;-0.448;2022-08-19T05:34:10;100861.41;;;18.20;100.00
60832;BME280;46665;51.558;-0.448;2022-08-19T05:36:41;100852.00;;;18.21;100.00
60832;BME280;46665;51.558;-0.448;2022-08-19T05:39:11;100861.88;;;18.22;100.00
60832;BME280;46665;51.558;-0.448;2022-08-19T05:41:44;100853.97;;;18.21;100.00
60832;BME280;46665;51.558;-0.448;2022-08-19T05:44:10;100859.47;;;18.21;100.00
60832;BME280;46665;51.558;-0.448;2022-08-19T05:46:37;100858.63;;;18.20;100.00
60832;BME280;46665;51.558;-0.448;2022-08-19T05:49:06;100854.59;;;18.17;100.00
60832;BME280;46665;51.558;-0.448;2022-08-19T05:51:33;100853.31;;;18.15;100.00
60832;BME280;46665;51.558;-0.448;2022-08-19T05:54:01;100855.25;;;18.14;100.00
60832;BME280;46665;51.558;-0.448;2022-08-19T05:56:27;100856.41;;;18.13;100.00
60832;BME280;46665;51.558;-0.448;2022-08-19T05:58:53;100855.91;;;18.11;100.00
60832;BME280;46665;51.558;-0.448;2022-08-19T06:01:19;100858.97;;;18.10;100.00
60832;BME280;46665;51.558;-0.448;2022-08-19T06:03:46;100861.09;;;18.04;100.00
60832;BME280;46665;51.558;-0.448;2022-08-19T06:06:14;100873.25;;;18.03;100.00
60832;BME280;46665;51.558;-0.448;2022-08-19T06:08:41;100876.81;;;18.04;100.00
60832;BME280;46665;51.558;-0.448;2022-08-19T06:11:20;100872.13;;;18.04;99.90
60832;BME280;46665;51.558;-0.448;2022-08-19T06:13:49;100867.59;;;18.00;99.09
60832;BME280;46665;51.558;-0.448;2022-08-19T06:16:16;100879.09;;;18.02;99.88
60832;BME280;46665;51.558;-0.448;2022-08-19T06:18:54;100882.50;;;17.98;98.38
60832;BME280;46665;51.558;-0.448;2022-08-19T06:21:22;100871.81;;;17.97;98.33
60832;BME280;46665;51.558;-0.448;2022-08-19T06:23:48;100883.47;;;17.94;99.18
60832;BME280;46665;51.558;-0.448;2022-08-19T06:26:16;100881.50;;;17.94;100.00
60832;BME280;46665;51.558;-0.448;2022-08-19T06:28:42;100887.81;;;17.95;99.26
60832;BME280;46665;51.558;-0.448;2022-08-19T06:31:20;100881.50;;;17.94;99.99
60832;BME280;46665;51.558;-0.448;2022-08-19T06:33:46;100889.78;;;17.94;99.49
60832;BME280;46665;51.558;-0.448;2022-08-19T06:36:24;100881.38;;;17.91;99.77
60832;BME280;46665;51.558;-0.448;2022-08-19T06:38:58;100880.72;;;17.85;99.72
60832;BME280;46665;51.558;-0.448;2022-08-19T06:41:27;100892.53;;;17.86;100.00
60832;BME280;46665;51.558;-0.448;2022-08-19T06:43:54;100882.66;;;17.85;100.00
60832;BME280;46665;51.558;-0.448;2022-08-19T06:46:20;100891.25;;;17.83;100.00
60832;BME280;46665;51.558;-0.448;2022-08-19T06:48:46;100892.06;;;17.84;100.00
60832;BME280;46665;51.558;-0.448;2022-08-19T06:51:14;100892.19;;;17.87;100.00
60832;BME280;46665;51.558;-0.448;2022-08-19T06:53:41;100888.16;;;17.93;100.00
60832;BME280;46665;51.558;-0.448;2022-08-19T06:56:11;100896.75;;;18.01;100.00
60832;BME280;46665;51.558;-0.448;2022-08-19T06:58:36;100892.84;;;18.10;99.62
60832;BME280;46665;51.558;-0.448;2022-08-19T07:01:03;100892.84;;;18.19;98.08
60832;BME280;46665;51.558;-0.448;2022-08-19T07:03:31;100892.50;;;18.29;97.28
60832;BME280;46665;51.558;-0.448;2022-08-19T07:06:02;100893.28;;;18.38;93.07
60832;BME280;46665;51.558;-0.448;2022-08-19T07:08:28;100895.03;;;18.52;90.42
60832;BME280;46665;51.558;-0.448;2022-08-19T07:10:54;100892.78;;;18.54;91.03
60832;BME280;46665;51.558;-0.448;2022-08-19T07:13:19;100894.69;;;18.53;86.25
60832;BME280;46665;51.558;-0.448;2022-08-19T07:15:46;100900.88;;;18.50;85.73
60832;BME280;46665;51.558;-0.448;2022-08-19T07:18:16;100902.50;;;18.51;84.80
60832;BME280;46665;51.558;-0.448;2022-08-19T07:20:41;100904.59;;;18.46;85.06
60832;BME280;46665;51.558;-0.448;2022-08-19T07:23:08;100907.53;;;18.40;83.32
60832;BME280;46665;51.558;-0.448;2022-08-19T07:25:36;100907.06;;;18.38;83.67
60832;BME280;46665;51.558;-0.448;2022-08-19T07:28:02;100899.91;;;18.37;84.44
60832;BME280;46665;51.558;-0.448;2022-08-19T07:30:27;100909.00;;;18.38;85.28
60832;BME280;46665;51.558;-0.448;2022-08-19T07:32:53;100906.41;;;18.33;83.79
60832;BME280;46665;51.558;-0.448;2022-08-19T07:35:18;100910.31;;;18.32;84.96
60832;BME280;46665;51.558;-0.448;2022-08-19T07:37:45;100916.63;;;18.32;85.75
60832;BME280;46665;51.558;-0.448;2022-08-19T07:40:11;100913.38;;;18.30;85.57
60832;BME280;46665;51.558;-0.448;2022-08-19T07:42:37;100907.41;;;18.28;85.27
60832;BME280;46665;51.558;-0.448;2022-08-19T07:45:03;100920.53;;;18.31;85.63
60832;BME280;46665;51.558;-0.448;2022-08-19T07:47:30;100915.34;;;18.30;84.92
60832;BME280;46665;51.558;-0.448;2022-08-19T07:49:56;100920.53;;;18.31;85.19
60832;BME280;46665;51.558;-0.448;2022-08-19T07:52:21;100924.09;;;18.32;85.65
60832;BME280;46665;51.558;-0.448;2022-08-19T07:54:47;100929.91;;;18.30;85.47
60832;BME280;46665;51.558;-0.448;2022-08-19T07:57:13;100941.59;;;18.27;84.59
60832;BME280;46665;51.558;-0.448;2022-08-19T07:59:38;100935.94;;;18.24;84.52
60832;BME280;46665;51.558;-0.448;2022-08-19T08:02:04;100933.66;;;18.17;84.96
60832;BME280;46665;51.558;-0.448;2022-08-19T08:04:30;100942.88;;;18.12;84.37
60832;BME280;46665;51.558;-0.448;2022-08-19T08:07:15;100939.19;;;18.08;84.83
60832;BME280;46665;51.558;-0.448;2022-08-19T08:09:59;100940.66;;;18.06;86.06
60832;BME280;46665;51.558;-0.448;2022-08-19T08:12:35;100942.91;;;18.04;85.71
60832;BME280;46665;51.558;-0.448;2022-08-19T08:15:10;100940.31;;;17.98;84.93
60832;BME280;46665;51.558;-0.448;2022-08-19T08:17:36;100945.19;;;17.93;85.43
60832;BME280;46665;51.558;-0.448;2022-08-19T08:20:06;100935.94;;;17.89;86.32
60832;BME280;46665;51.558;-0.448;2022-08-19T08:22:32;100944.50;;;17.87;86.98
60832;BME280;46665;51.558;-0.448;2022-08-19T08:25:27;100942.75;;;17.83;86.84
60832;BME280;46665;51.558;-0.448;2022-08-19T08:27:53;100939.84;;;17.88;87.71
60832;BME280;46665;51.558;-0.448;2022-08-19T08:30:21;100939.81;;;17.96;86.83
60832;BME280;46665;51.558;-0.448;2022-08-19T08:32:47;100940.31;;;18.07;86.13
60832;BME280;46665;51.558;-0.448;2022-08-19T08:35:15;100933.34;;;18.18;86.52
60832;BME280;46665;51.558;-0.448;2022-08-19T08:37:42;100924.41;;;18.30;86.07
60832;BME280;46665;51.558;-0.448;2022-08-19T08:40:29;100931.03;;;18.47;84.96
60832;BME280;46665;51.558;-0.448;2022-08-19T08:43:06;100934.72;;;18.59;83.32
60832;BME280;46665;51.558;-0.448;2022-08-19T08:45:38;100928.06;;;18.69;79.88
60832;BME280;46665;51.558;-0.448;2022-08-19T08:51:06;100936.63;;;18.85;73.19
60832;BME280;46665;51.558;-0.448;2022-08-19T08:53:34;100944.72;;;18.90;74.72
60832;BME280;46665;51.558;-0.448;2022-08-19T08:56:06;100941.47;;;18.88;71.78
60832;BME280;46665;51.558;-0.448;2022-08-19T08:58:42;100955.25;;;18.97;73.18
60832;BME280;46665;51.558;-0.448;2022-08-19T09:01:11;100935.22;;;19.09;73.47
60832;BME280;46665;51.558;-0.448;2022-08-19T09:03:39;100942.38;;;19.10;71.97
60832;BME280;46665;51.558;-0.448;2022-08-19T09:06:36;100942.56;;;19.04;70.78
60832;BME280;46665;51.558;-0.448;2022-08-19T09:16:53;100938.09;;;19.21;72.51
60832;BME280;46665;51.558;-0.448;2022-08-19T09:19:19;100948.25;;;19.29;71.92
60832;BME280;46665;51.558;-0.448;2022-08-19T09:21:44;100939.97;;;19.29;72.84
60832;BME280;46665;51.558;-0.448;2022-08-19T09:24:11;100937.88;;;19.35;71.47
60832;BME280;46665;51.558;-0.448;2022-08-19T09:26:37;100945.41;;;19.46;71.27
60832;BME280;46665;51.558;-0.448;2022-08-19T09:29:02;100944.91;;;19.53;70.82
60832;BME280;46665;51.558;-0.448;2022-08-19T09:31:31;100942.91;;;19.62;70.56
60832;BME280;46665;51.558;-0.448;2022-08-19T09:33:58;100938.94;;;19.72;68.09
60832;BME280;46665;51.558;-0.448;2022-08-19T09:36:25;100940.69;;;19.77;69.20
60832;BME280;46665;51.558;-0.448;2022-08-19T09:38:52;100942.44;;;19.81;68.49
60832;BME280;46665;51.558;-0.448;2022-08-19T09:41:20;100947.16;;;19.81;67.96
60832;BME280;46665;51.558;-0.448;2022-08-19T09:43:48;100945.09;;;19.78;67.23
60832;BME280;46665;51.558;-0.448;2022-08-19T09:46:14;100951.75;;;19.77;67.30
60832;BME280;46665;51.558;-0.448;2022-08-19T09:48:43;100947.84;;;19.78;68.44
60832;BME280;46665;51.558;-0.448;2022-08-19T09:51:12;100940.00;;;19.80;67.64
60832;BME280;46665;51.558;-0.448;2022-08-19T09:53:41;100952.81;;;19.84;67.09
60832;BME280;46665;51.558;-0.448;2022-08-19T09:56:06;100945.50;;;19.88;67.71
60832;BME280;46665;51.558;-0.448;2022-08-19T09:58:33;100942.31;;;19.99;68.49
60832;BME280;46665;51.558;-0.448;2022-08-19T10:01:00;100949.72;;;20.07;67.60
60832;BME280;46665;51.558;-0.448;2022-08-19T10:03:28;100949.41;;;20.08;67.27
60832;BME280;46665;51.558;-0.448;2022-08-19T10:05:54;100943.13;;;19.99;65.49
60832;BME280;46665;51.558;-0.448;2022-08-19T10:08:23;100954.13;;;20.08;66.60
60832;BME280;46665;51.558;-0.448;2022-08-19T10:10:50;100956.41;;;20.06;64.42
60832;BME280;46665;51.558;-0.448;2022-08-19T10:13:18;100955.53;;;19.93;62.05
60832;BME280;46665;51.558;-0.448;2022-08-19T10:15:47;100957.63;;;19.96;63.07
60832;BME280;46665;51.558;-0.448;2022-08-19T10:18:16;100942.31;;;19.99;63.65
60832;BME280;46665;51.558;-0.448;2022-08-19T10:20:45;100949.13;;;20.01;63.83
60832;BME280;46665;51.558;-0.448;2022-08-19T10:23:12;100940.75;;;20.10;63.95
60832;BME280;46665;51.558;-0.448;2022-08-19T10:25:38;100940.97;;;20.26;63.74
60832;BME280;46665;51.558;-0.448;2022-08-19T10:28:04;100946.66;;;20.42;62.33
60832;BME280;46665;51.558;-0.448;2022-08-19T10:30:30;100958.25;;;20.56;61.25
60832;BME280;46665;51.558;-0.448;2022-08-19T10:32:56;100947.19;;;20.68;61.23
60832;BME280;46665;51.558;-0.448;2022-08-19T10:35:21;100955.16;;;20.70;60.68
60832;BME280;46665;51.558;-0.448;2022-08-19T10:37:47;100958.94;;;20.65;58.96
60832;BME280;46665;51.558;-0.448;2022-08-19T10:40:13;100963.94;;;20.72;58.78
60832;BME280;46665;51.558;-0.448;2022-08-19T10:42:38;100971.97;;;20.65;57.85
60832;BME280;46665;51.558;-0.448;2022-08-19T10:45:05;100970.00;;;20.65;59.41
60832;BME280;46665;51.558;-0.448;2022-08-19T10:47:32;100967.13;;;20.62;59.37
60832;BME280;46665;51.558;-0.448;2022-08-19T10:49:58;100978.78;;;20.67;59.45
60832;BME280;46665;51.558;-0.448;2022-08-19T10:52:45;100976.78;;;20.55;59.39
60832;BME280;46665;51.558;-0.448;2022-08-19T10:55:11;100978.88;;;20.59;60.18
60832;BME280;46665;51.558;-0.448;2022-08-19T10:57:55;100982.44;;;20.59;58.28
60832;BME280;46665;51.558;-0.448;2022-08-19T11:00:21;100975.09;;;20.42;57.12
60832;BME280;46665;51.558;-0.448;2022-08-19T11:02:48;100984.97;;;20.43;57.79
60832;BME280;46665;51.558;-0.448;2022-08-19T11:05:14;100979.66;;;20.38;58.21
60832;BME280;46665;51.558;-0.448;2022-08-19T11:07:40;100973.44;;;20.29;57.66
60832;BME280;46665;51.558;-0.448;2022-08-19T11:10:08;100983.81;;;20.32;57.93
60832;BME280;46665;51.558;-0.448;2022-08-19T11:12:37;100998.16;;;20.46;56.36
60832;BME280;46665;51.558;-0.448;2022-08-19T11:15:06;100997.66;;;20.65;54.52
60832;BME280;46665;51.558;-0.448;2022-08-19T11:17:33;100997.91;;;20.72;52.65
60832;BME280;46665;51.558;-0.448;2022-08-19T11:19:58;100994.13;;;20.77;51.69
60832;BME280;46665;51.558;-0.448;2022-08-19T11:22:28;100996.31;;;20.71;51.41
60832;BME280;46665;51.558;-0.448;2022-08-19T11:24:53;100992.47;;;20.64;51.85
60832;BME280;46665;51.558;-0.448;2022-08-19T11:27:21;100992.00;;;20.62;52.01
60832;BME280;46665;51.558;-0.448;2022-08-19T11:29:46;101000.63;;;20.60;52.42
60832;BME280;46665;51.558;-0.448;2022-08-19T11:32:12;100996.75;;;20.61;53.22
60832;BME280;46665;51.558;-0.448;2022-08-19T11:34:38;100998.25;;;20.71;53.57
60832;BME280;46665;51.558;-0.448;2022-08-19T11:37:05;100999.06;;;20.71;52.88
60832;BME280;46665;51.558;-0.448;2022-08-19T11:39:32;100997.94;;;20.85;51.01
60832;BME280;46665;51.558;-0.448;2022-08-19T11:41:59;100990.16;;;20.99;50.38
60832;BME280;46665;51.558;-0.448;2022-08-19T11:44:26;100991.63;;;21.09;50.46
60832;BME280;46665;51.558;-0.448;2022-08-19T11:46:55;100985.31;;;21.08;48.36
60832;BME280;46665;51.558;-0.448;2022-08-19T11:49:21;100982.44;;;21.05;48.51
60832;BME280;46665;51.558;-0.448;2022-08-19T11:51:47;100996.47;;;20.99;48.86
60832;BME280;46665;51.558;-0.448;2022-08-19T11:54:15;101001.06;;;20.95;48.63
60832;BME280;46665;51.558;-0.448;2022-08-19T11:56:42;100995.78;;;21.03;49.82
60832;BME280;46665;51.558;-0.448;2022-08-19T11:59:08;100988.75;;;21.05;47.44
60832;BME280;46665;51.558;-0.448;2022-08-19T12:01:34;100990.75;;;21.17;48.01
60832;BME280;46665;51.558;-0.448;2022-08-19T12:04:02;100988.66;;;21.14;46.80
60832;BME280;46665;51.558;-0.448;2022-08-19T12:06:31;100990.38;;;21.06;47.40
60832;BME280;46665;51.558;-0.448;2022-08-19T12:08:59;100993.47;;;20.92;46.62
60832;BME280;46665;51.558;-0.448;2022-08-19T12:11:26;100997.81;;;20.81;45.60
60832;BME280;46665;51.558;-0.448;2022-08-19T12:13:52;100991.66;;;20.96;46.20
60832;BME280;46665;51.558;-0.448;2022-08-19T12:16:20;100983.75;;;20.86;44.91
60832;BME280;46665;51.558;-0.448;2022-08-19T12:18:47;100990.38;;;21.06;45.68
60832;BME280;46665;51.558;-0.448;2022-08-19T12:21:17;100996.06;;;21.22;43.37
60832;BME280;46665;51.558;-0.448;2022-08-19T12:23:46;100992.94;;;21.36;43.64
60832;BME280;46665;51.558;-0.448;2022-08-19T12:26:12;100992.16;;;21.48;43.84
60832;BME280;46665;51.558;-0.448;2022-08-19T12:28:38;100983.63;;;21.40;42.39
60832;BME280;46665;51.558;-0.448;2022-08-19T12:31:04;100997.66;;;21.35;43.85
60832;BME280;46665;51.558;-0.448;2022-08-19T12:33:30;100985.00;;;21.47;43.24
60832;BME280;46665;51.558;-0.448;2022-08-19T12:36:01;100984.53;;;21.57;43.51
60832;BME280;46665;51.558;-0.448;2022-08-19T12:38:28;100986.94;;;21.71;42.16
60832;BME280;46665;51.558;-0.448;2022-08-19T12:40:53;100991.22;;;21.56;41.91
60832;BME280;46665;51.558;-0.448;2022-08-19T12:43:19;100984.19;;;21.46;42.53
60832;BME280;46665;51.558;-0.448;2022-08-19T12:45:48;100986.03;;;21.42;42.54
60832;BME280;46665;51.558;-0.448;2022-08-19T12:48:13;100978.75;;;21.62;42.33
60832;BME280;46665;51.558;-0.448;2022-08-19T12:50:40;100980.59;;;21.70;40.81